sensor_id;sensor_type;location;lat;lon;timestamp;P1;durP1;ratioP1;P2;durP2;ratioP2
50631;SDS011;49583;45.590;-122.498;2023-07-20T00:02:34;1.10;;;0.80;;
50631;SDS011;49583;45.590;-122.498;2023-07-20T00:05:06;4.60;;;1.00;;
50631;SDS011;49583;45.590;-122.498;2023-07-20T00:07:22;3.30;;;1.20;;
50631;SDS011;49583;45.590;-122.498;2023-07-20T00:09:39;2.80;;;0.90;;
50631;SDS011;49583;45.590;-122.498;2023-07-20T00:12:02;2.00;;;0.90;;
50631;SDS011;49583;45.590;-122.498;2023-07-20T00:14:26;36.50;;;2.90;;
50631;SDS011;49583;45.590;-122.498;2023-07-20T00:17:00;18.90;;;2.10;;
50631;SDS011;49583;45.590;-122.498;2023-07-20T00:19:27;2.40;;;1.30;;
50631;SDS011;49583;45.590;-122.498;2023-07-20T00:21:51;12.40;;;1.50;;
50631;SDS011;49583;45.590;-122.498;2023-07-20T00:24:25;4.40;;;1.00;;
50631;SDS011;49583;45.590;-122.498;2023-07-20T00:26:37;1.50;;;0.90;;
50631;SDS011;49583;45.590;-122.498;2023-07-20T00:29:02;5.10;;;0.70;;
50631;SDS011;49583;45.590;-122.498;2023-07-20T00:31:15;2.20;;;0.90;;
50631;SDS011;49583;45.590;-122.498;2023-07-20T00:33:37;2.00;;;1.00;;
50631;SDS011;49583;45.590;-122.498;2023-07-20T00:36:00;1.50;;;0.70;;
50631;SDS011;49583;45.590;-122.498;2023-07-20T00:38:18;3.20;;;1.00;;
50631;SDS011;49583;45.590;-122.498;2023-07-20T00:40:37;2.10;;;1.00;;
50631;SDS011;49583;45.590;-122.498;2023-07-20T00:42:54;3.10;;;0.90;;
50631;SDS011;49583;45.590;-122.498;2023-07-20T00:45:17;1.90;;;0.80;;
50631;SDS011;49583;45.590;-122.498;2023-07-20T00:47:44;2.00;;;0.80;;
50631;SDS011;49583;45.590;-122.498;2023-07-20T00:50:10;2.50;;;0.70;;
50631;SDS011;49583;45.590;-122.498;2023-07-20T00:52:26;6.80;;;1.20;;
50631;SDS011;49583;45.590;-122.498;2023-07-20T00:55:00;2.30;;;1.10;;
50631;SDS011;49583;45.590;-122.498;2023-07-20T00:57:16;2.30;;;0.70;;
50631;SDS011;49583;45.590;-122.498;2023-07-20T00:59:49;6.50;;;1.10;;
50631;SDS011;49583;45.590;-122.498;2023-07-20T01:02:23;4.40;;;1.00;;
50631;SDS011;49583;45.590;-122.498;2023-07-20T01:04:47;1.60;;;0.90;;
50631;SDS011;49583;45.590;-122.498;2023-07-20T01:07:06;1.80;;;0.80;;
50631;SDS011;49583;45.590;-122.498;2023-07-20T01:09:28;4.20;;;0.90;;
50631;SDS011;49583;45.590;-122.498;2023-07-20T01:11:59;2.50;;;0.80;;
50631;SDS011;49583;45.590;-122.498;2023-07-20T01:14:27;2.10;;;0.90;;
50631;SDS011;49583;45.590;-122.498;2023-07-20T01:16:42;2.40;;;1.00;;
50631;SDS011;49583;45.590;-122.498;2023-07-20T01:19:00;1.80;;;0.80;;
50631;SDS011;49583;45.590;-122.498;2023-07-20T01:21:16;1.30;;;0.70;;
50631;SDS011;49583;45.590;-122.498;2023-07-20T01:24:08;1.70;;;1.00;;
50631;SDS011;49583;45.590;-122.498;2023-07-20T01:29:36;1.20;;;0.80;;
50631;SDS011;49583;45.590;-122.498;2023-07-20T01:32:03;3.30;;;1.10;;
50631;SDS011;49583;45.590;-122.498;2023-07-20T01:34:32;2.60;;;1.20;;
50631;SDS011;49583;45.590;-122.498;2023-07-20T01:36:57;1.70;;;0.90;;
50631;SDS011;49583;45.590;-122.498;2023-07-20T01:39:21;4.80;;;1.00;;
50631;SDS011;49583;45.590;-122.498;2023-07-20T01:41:35;1.90;;;1.00;;
50631;SDS011;49583;45.590;-122.498;2023-07-20T01:43:51;1.20;;;1.10;;
50631;SDS011;49583;45.590;-122.498;2023-07-20T01:46:17;1.50;;;1.10;;
50631;SDS011;49583;45.590;-122.498;2023-07-20T01:48:51;3.20;;;1.00;;
50631;SDS011;49583;45.590;-122.498;2023-07-20T01:51:10;5.60;;;1.30;;
50631;SDS011;49583;45.590;-122.498;2023-07-20T01:53:38;3.50;;;1.50;;
50631;SDS011;49583;45.590;-122.498;2023-07-20T01:56:03;4.60;;;1.60;;
50631;SDS011;49583;45.590;-122.498;2023-07-20T01:58:17;3.70;;;1.10;;
50631;SDS011;49583;45.590;-122.498;2023-07-20T02:00:41;2.00;;;1.50;;
50631;SDS011;49583;45.590;-122.498;2023-07-20T02:02:54;1.80;;;1.20;;
50631;SDS011;49583;45.590;-122.498;2023-07-20T02:05:16;2.50;;;1.50;;
50631;SDS011;49583;45.590;-122.498;2023-07-20T02:07:41;3.40;;;1.30;;
50631;SDS011;49583;45.590;-122.498;2023-07-20T02:10:07;3.60;;;1.60;;
50631;SDS011;49583;45.590;-122.498;2023-07-20T02:12:23;4.50;;;1.40;;
50631;SDS011;49583;45.590;-122.498;2023-07-20T02:14:36;3.50;;;1.20;;
50631;SDS011;49583;45.590;-122.498;2023-07-20T02:16:53;3.10;;;1.80;;
50631;SDS011;49583;45.590;-122.498;2023-07-20T02:19:18;3.30;;;1.80;;
50631;SDS011;49583;45.590;-122.498;2023-07-20T02:21:31;3.60;;;1.60;;
50631;SDS011;49583;45.590;-122.498;2023-07-20T02:23:44;5.80;;;2.00;;
50631;SDS011;49583;45.590;-122.498;2023-07-20T02:25:58;2.60;;;1.70;;
50631;SDS011;49583;45.590;-122.498;2023-07-20T02:28:13;3.20;;;1.90;;
50631;SDS011;49583;45.590;-122.498;2023-07-20T02:30:39;3.40;;;1.30;;
50631;SDS011;49583;45.590;-122.498;2023-07-20T02:32:53;2.10;;;1.40;;
50631;SDS011;49583;45.590;-122.498;2023-07-20T02:35:07;3.60;;;1.80;;
50631;SDS011;49583;45.590;-122.498;2023-07-20T02:37:30;3.80;;;1.60;;
50631;SDS011;49583;45.590;-122.498;2023-07-20T02:40:02;3.10;;;1.40;;
50631;SDS011;49583;45.590;-122.498;2023-07-20T02:42:26;4.00;;;1.30;;
50631;SDS011;49583;45.590;-122.498;2023-07-20T02:44:43;3.00;;;1.90;;
50631;SDS011;49583;45.590;-122.498;2023-07-20T02:46:59;4.80;;;1.40;;
50631;SDS011;49583;45.590;-122.498;2023-07-20T02:49:16;3.90;;;1.20;;
50631;SDS011;49583;45.590;-122.498;2023-07-20T02:51:39;2.80;;;1.60;;
50631;SDS011;49583;45.590;-122.498;2023-07-20T02:53:52;3.00;;;1.20;;
50631;SDS011;49583;45.590;-122.498;2023-07-20T02:56:20;4.20;;;1.30;;
50631;SDS011;49583;45.590;-122.498;2023-07-20T02:58:33;2.70;;;1.10;;
50631;SDS011;49583;45.590;-122.498;2023-07-20T03:00:54;3.90;;;1.30;;
50631;SDS011;49583;45.590;-122.498;2023-07-20T03:03:08;1.50;;;1.40;;
50631;SDS011;49583;45.590;-122.498;2023-07-20T03:05:22;2.00;;;1.30;;
50631;SDS011;49583;45.590;-122.498;2023-07-20T03:07:35;2.90;;;1.10;;
50631;SDS011;49583;45.590;-122.498;2023-07-20T03:10:00;3.00;;;1.00;;
50631;SDS011;49583;45.590;-122.498;2023-07-20T03:12:15;2.30;;;1.40;;
50631;SDS011;49583;45.590;-122.498;2023-07-20T03:14:50;4.80;;;1.00;;
50631;SDS011;49583;45.590;-122.498;2023-07-20T03:17:08;2.30;;;1.00;;
50631;SDS011;49583;45.590;-122.498;2023-07-20T03:19:41;1.60;;;1.10;;
50631;SDS011;49583;45.590;-122.498;2023-07-20T03:22:16;2.30;;;1.30;;
50631;SDS011;49583;45.590;-122.498;2023-07-20T03:24:49;3.50;;;1.20;;
50631;SDS011;49583;45.590;-122.498;2023-07-20T03:27:14;1.60;;;1.20;;
50631;SDS011;49583;45.590;-122.498;2023-07-20T03:29:44;4.10;;;0.90;;
50631;SDS011;49583;45.590;-122.498;2023-07-20T03:32:06;2.20;;;1.30;;
50631;SDS011;49583;45.590;-122.498;2023-07-20T03:34:19;1.50;;;0.90;;
50631;SDS011;49583;45.590;-122.498;2023-07-20T03:36:42;2.00;;;0.90;;
50631;SDS011;49583;45.590;-122.498;2023-07-20T03:39:09;2.00;;;0.90;;
50631;SDS011;49583;45.590;-122.498;2023-07-20T03:41:33;2.30;;;1.00;;
50631;SDS011;49583;45.590;-122.498;2023-07-20T03:43:50;2.60;;;1.00;;
50631;SDS011;49583;45.590;-122.498;2023-07-20T03:46:23;3.20;;;1.10;;
50631;SDS011;49583;45.590;-122.498;2023-07-20T03:48:36;1.80;;;1.40;;
50631;SDS011;49583;45.590;-122.498;2023-07-20T03:50:53;3.30;;;1.00;;
50631;SDS011;49583;45.590;-122.498;2023-07-20T03:53:09;3.80;;;1.10;;
50631;SDS011;49583;45.590;-122.498;2023-07-20T03:55:25;4.30;;;1.60;;
50631;SDS011;49583;45.590;-122.498;2023-07-20T03:57:48;3.30;;;1.50;;
50631;SDS011;49583;45.590;-122.498;2023-07-20T04:00:01;6.10;;;1.40;;
50631;SDS011;49583;45.590;-122.498;2023-07-20T04:02:18;7.70;;;2.00;;
50631;SDS011;49583;45.590;-122.498;2023-07-20T04:04:34;4.30;;;1.30;;
50631;SDS011;49583;45.590;-122.498;2023-07-20T04:07:07;6.70;;;1.60;;
50631;SDS011;49583;45.590;-122.498;2023-07-20T04:09:21;3.90;;;1.50;;
50631;SDS011;49583;45.590;-122.498;2023-07-20T04:11:43;4.50;;;1.90;;
50631;SDS011;49583;45.590;-122.498;2023-07-20T04:13:56;2.30;;;1.30;;
50631;SDS011;49583;45.590;-122.498;2023-07-20T04:16:29;3.60;;;1.70;;
50631;SDS011;49583;45.590;-122.498;2023-07-20T04:18:52;8.30;;;1.90;;
50631;SDS011;49583;45.590;-122.498;2023-07-20T04:21:10;4.00;;;1.40;;
50631;SDS011;49583;45.590;-122.498;2023-07-20T04:23:43;3.60;;;1.80;;
50631;SDS011;49583;45.590;-122.498;2023-07-20T04:26:15;1.80;;;1.10;;
50631;SDS011;49583;45.590;-122.498;2023-07-20T04:28:49;4.50;;;1.20;;
50631;SDS011;49583;45.590;-122.498;2023-07-20T04:31:27;4.70;;;1.30;;
50631;SDS011;49583;45.590;-122.498;2023-07-20T04:33:42;3.40;;;1.20;;
50631;SDS011;49583;45.590;-122.498;2023-07-20T04:36:14;2.60;;;1.00;;
50631;SDS011;49583;45.590;-122.498;2023-07-20T04:38:48;2.70;;;1.30;;
50631;SDS011;49583;45.590;-122.498;2023-07-20T04:41:20;5.50;;;1.10;;
50631;SDS011;49583;45.590;-122.498;2023-07-20T04:43:36;3.40;;;1.20;;
50631;SDS011;49583;45.590;-122.498;2023-07-20T04:45:52;4.80;;;1.20;;
50631;SDS011;49583;45.590;-122.498;2023-07-20T04:48:17;2.40;;;1.00;;
50631;SDS011;49583;45.590;-122.498;2023-07-20T04:50:50;4.30;;;1.10;;
50631;SDS011;49583;45.590;-122.498;2023-07-20T04:53:07;4.60;;;1.60;;
50631;SDS011;49583;45.590;-122.498;2023-07-20T04:55:33;1.40;;;1.00;;
50631;SDS011;49583;45.590;-122.498;2023-07-20T04:57:56;1.40;;;0.70;;
50631;SDS011;49583;45.590;-122.498;2023-07-20T05:00:30;2.50;;;1.10;;
50631;SDS011;49583;45.590;-122.498;2023-07-20T05:03:04;2.40;;;1.10;;
50631;SDS011;49583;45.590;-122.498;2023-07-20T05:05:37;2.70;;;1.00;;
50631;SDS011;49583;45.590;-122.498;2023-07-20T05:07:56;3.30;;;1.50;;
50631;SDS011;49583;45.590;-122.498;2023-07-20T05:10:10;2.70;;;1.20;;
50631;SDS011;49583;45.590;-122.498;2023-07-20T05:12:34;4.00;;;0.90;;
50631;SDS011;49583;45.590;-122.498;2023-07-20T05:14:47;4.10;;;1.50;;
50631;SDS011;49583;45.590;-122.498;2023-07-20T05:17:13;3.50;;;1.40;;
50631;SDS011;49583;45.590;-122.498;2023-07-20T05:19:26;3.10;;;1.40;;
50631;SDS011;49583;45.590;-122.498;2023-07-20T05:21:39;3.70;;;1.50;;
50631;SDS011;49583;45.590;-122.498;2023-07-20T05:23:53;2.80;;;1.30;;
50631;SDS011;49583;45.590;-122.498;2023-07-20T05:26:09;4.00;;;1.10;;
50631;SDS011;49583;45.590;-122.498;2023-07-20T05:28:29;4.90;;;1.60;;
50631;SDS011;49583;45.590;-122.498;2023-07-20T05:30:45;2.20;;;1.10;;
50631;SDS011;49583;45.590;-122.498;2023-07-20T05:33:07;3.90;;;1.10;;
50631;SDS011;49583;45.590;-122.498;2023-07-20T05:35:29;2.00;;;1.20;;
50631;SDS011;49583;45.590;-122.498;2023-07-20T05:38:02;2.60;;;0.90;;
50631;SDS011;49583;45.590;-122.498;2023-07-20T05:40:26;3.80;;;1.30;;
50631;SDS011;49583;45.590;-122.498;2023-07-20T05:42:58;3.40;;;1.00;;
50631;SDS011;49583;45.590;-122.498;2023-07-20T05:45:15;2.20;;;1.20;;
50631;SDS011;49583;45.590;-122.498;2023-07-20T05:47:31;4.90;;;1.30;;
50631;SDS011;49583;45.590;-122.498;2023-07-20T05:49:44;3.90;;;1.30;;
50631;SDS011;49583;45.590;-122.498;2023-07-20T05:52:08;1.90;;;1.10;;
50631;SDS011;49583;45.590;-122.498;2023-07-20T05:54:21;3.50;;;1.40;;
50631;SDS011;49583;45.590;-122.498;2023-07-20T05:56:35;4.20;;;1.30;;
50631;SDS011;49583;45.590;-122.498;2023-07-20T05:59:02;3.50;;;1.10;;
50631;SDS011;49583;45.590;-122.498;2023-07-20T06:01:19;3.60;;;1.50;;
50631;SDS011;49583;45.590;-122.498;2023-07-20T06:03:55;2.00;;;1.00;;
50631;SDS011;49583;45.590;-122.498;2023-07-20T06:06:18;2.40;;;1.70;;
50631;SDS011;49583;45.590;-122.498;2023-07-20T06:08:32;3.80;;;1.30;;
50631;SDS011;49583;45.590;-122.498;2023-07-20T06:10:55;2.90;;;0.90;;
50631;SDS011;49583;45.590;-122.498;2023-07-20T06:13:31;4.90;;;1.50;;
50631;SDS011;49583;45.590;-122.498;2023-07-20T06:15:47;3.70;;;1.20;;
50631;SDS011;49583;45.590;-122.498;2023-07-20T06:18:03;3.40;;;1.30;;
50631;SDS011;49583;45.590;-122.498;2023-07-20T06:20:37;3.00;;;1.00;;
50631;SDS011;49583;45.590;-122.498;2023-07-20T06:22:54;6.80;;;1.30;;
50631;SDS011;49583;45.590;-122.498;2023-07-20T06:25:12;2.80;;;1.30;;
50631;SDS011;49583;45.590;-122.498;2023-07-20T06:27:28;4.10;;;1.40;;
50631;SDS011;49583;45.590;-122.498;2023-07-20T06:29:53;3.60;;;1.20;;
50631;SDS011;49583;45.590;-122.498;2023-07-20T06:32:15;3.80;;;1.60;;
50631;SDS011;49583;45.590;-122.498;2023-07-20T06:34:48;1.80;;;1.20;;
50631;SDS011;49583;45.590;-122.498;2023-07-20T06:37:06;3.30;;;1.50;;
50631;SDS011;49583;45.590;-122.498;2023-07-20T06:39:38;2.90;;;1.30;;
50631;SDS011;49583;45.590;-122.498;2023-07-20T06:41:54;3.30;;;1.40;;
50631;SDS011;49583;45.590;-122.498;2023-07-20T06:44:07;4.10;;;1.40;;
50631;SDS011;49583;45.590;-122.498;2023-07-20T06:46:20;2.70;;;1.80;;
50631;SDS011;49583;45.590;-122.498;2023-07-20T06:48:44;3.90;;;1.50;;
50631;SDS011;49583;45.590;-122.498;2023-07-20T06:50:59;3.30;;;1.90;;
50631;SDS011;49583;45.590;-122.498;2023-07-20T06:53:24;3.40;;;1.80;;
50631;SDS011;49583;45.590;-122.498;2023-07-20T06:55:41;6.30;;;2.20;;
50631;SDS011;49583;45.590;-122.498;2023-07-20T06:58:08;3.70;;;1.40;;
50631;SDS011;49583;45.590;-122.498;2023-07-20T07:00:21;4.90;;;1.70;;
50631;SDS011;49583;45.590;-122.498;2023-07-20T07:02:46;3.20;;;1.70;;
50631;SDS011;49583;45.590;-122.498;2023-07-20T07:05:19;3.60;;;1.80;;
50631;SDS011;49583;45.590;-122.498;2023-07-20T07:07:55;2.60;;;1.40;;
50631;SDS011;49583;45.590;-122.498;2023-07-20T07:10:29;3.80;;;1.60;;
50631;SDS011;49583;45.590;-122.498;2023-07-20T07:12:47;5.10;;;1.40;;
50631;SDS011;49583;45.590;-122.498;2023-07-20T07:15:10;3.60;;;1.90;;
50631;SDS011;49583;45.590;-122.498;2023-07-20T07:17:34;2.60;;;1.80;;
50631;SDS011;49583;45.590;-122.498;2023-07-20T07:19:59;6.30;;;2.40;;
50631;SDS011;49583;45.590;-122.498;2023-07-20T07:22:25;6.30;;;2.10;;
50631;SDS011;49583;45.590;-122.498;2023-07-20T07:24:49;6.10;;;2.00;;
50631;SDS011;49583;45.590;-122.498;2023-07-20T07:27:13;2.80;;;1.70;;
50631;SDS011;49583;45.590;-122.498;2023-07-20T07:29:30;3.70;;;2.20;;
50631;SDS011;49583;45.590;-122.498;2023-07-20T07:31:46;5.10;;;1.80;;
50631;SDS011;49583;45.590;-122.498;2023-07-20T07:34:19;4.00;;;2.40;;
50631;SDS011;49583;45.590;-122.498;2023-07-20T07:36:33;3.40;;;1.70;;
50631;SDS011;49583;45.590;-122.498;2023-07-20T07:38:55;4.70;;;1.70;;
50631;SDS011;49583;45.590;-122.498;2023-07-20T07:41:32;4.50;;;2.20;;
50631;SDS011;49583;45.590;-122.498;2023-07-20T07:43:55;5.10;;;2.60;;
50631;SDS011;49583;45.590;-122.498;2023-07-20T07:46:27;5.70;;;2.60;;
50631;SDS011;49583;45.590;-122.498;2023-07-20T07:48:53;3.80;;;2.20;;
50631;SDS011;49583;45.590;-122.498;2023-07-20T07:51:11;3.80;;;2.10;;
50631;SDS011;49583;45.590;-122.498;2023-07-20T07:53:37;4.50;;;1.90;;
50631;SDS011;49583;45.590;-122.498;2023-07-20T07:56:11;5.20;;;2.30;;
50631;SDS011;49583;45.590;-122.498;2023-07-20T07:58:34;5.80;;;2.00;;
50631;SDS011;49583;45.590;-122.498;2023-07-20T08:00:58;4.80;;;2.00;;
50631;SDS011;49583;45.590;-122.498;2023-07-20T08:03:23;6.10;;;2.10;;
50631;SDS011;49583;45.590;-122.498;2023-07-20T08:05:40;3.80;;;2.00;;
50631;SDS011;49583;45.590;-122.498;2023-07-20T08:07:52;8.50;;;1.90;;
50631;SDS011;49583;45.590;-122.498;2023-07-20T08:10:15;3.30;;;1.90;;
50631;SDS011;49583;45.590;-122.498;2023-07-20T08:12:29;4.00;;;2.00;;
50631;SDS011;49583;45.590;-122.498;2023-07-20T08:14:45;4.40;;;2.10;;
50631;SDS011;49583;45.590;-122.498;2023-07-20T08:17:00;3.10;;;2.00;;
50631;SDS011;49583;45.590;-122.498;2023-07-20T08:19:35;7.50;;;2.90;;
50631;SDS011;49583;45.590;-122.498;2023-07-20T08:21:49;3.10;;;1.80;;
50631;SDS011;49583;45.590;-122.498;2023-07-20T08:24:02;5.40;;;2.80;;
50631;SDS011;49583;45.590;-122.498;2023-07-20T08:26:36;5.10;;;2.10;;
50631;SDS011;49583;45.590;-122.498;2023-07-20T08:28:49;7.20;;;2.00;;
50631;SDS011;49583;45.590;-122.498;2023-07-20T08:31:03;6.50;;;2.10;;
50631;SDS011;49583;45.590;-122.498;2023-07-20T08:33:18;4.80;;;2.20;;
50631;SDS011;49583;45.590;-122.498;2023-07-20T08:35:41;5.70;;;2.60;;
50631;SDS011;49583;45.590;-122.498;2023-07-20T08:37:55;7.10;;;3.20;;
50631;SDS011;49583;45.590;-122.498;2023-07-20T08:40:10;5.10;;;3.30;;
50631;SDS011;49583;45.590;-122.498;2023-07-20T08:42:24;5.90;;;3.00;;
50631;SDS011;49583;45.590;-122.498;2023-07-20T08:44:41;4.70;;;2.80;;
50631;SDS011;49583;45.590;-122.498;2023-07-20T08:47:17;5.90;;;3.40;;
50631;SDS011;49583;45.590;-122.498;2023-07-20T08:49:52;5.30;;;2.90;;
50631;SDS011;49583;45.590;-122.498;2023-07-20T08:52:09;6.00;;;3.20;;
50631;SDS011;49583;45.590;-122.498;2023-07-20T08:54:41;7.70;;;3.20;;
50631;SDS011;49583;45.590;-122.498;2023-07-20T08:56:55;9.00;;;3.50;;
50631;SDS011;49583;45.590;-122.498;2023-07-20T08:59:25;8.30;;;3.60;;
50631;SDS011;49583;45.590;-122.498;2023-07-20T09:01:50;6.20;;;3.80;;
50631;SDS011;49583;45.590;-122.498;2023-07-20T09:04:25;7.10;;;3.80;;
50631;SDS011;49583;45.590;-122.498;2023-07-20T09:06:47;6.20;;;3.10;;
50631;SDS011;49583;45.590;-122.498;2023-07-20T09:09:03;8.00;;;3.20;;
50631;SDS011;49583;45.590;-122.498;2023-07-20T09:11:16;8.40;;;2.90;;
50631;SDS011;49583;45.590;-122.498;2023-07-20T09:13:49;9.70;;;3.40;;
50631;SDS011;49583;45.590;-122.498;2023-07-20T09:16:26;6.30;;;2.80;;
50631;SDS011;49583;45.590;-122.498;2023-07-20T09:18:50;3.90;;;2.90;;
50631;SDS011;49583;45.590;-122.498;2023-07-20T09:21:04;7.70;;;2.90;;
50631;SDS011;49583;45.590;-122.498;2023-07-20T09:23:38;5.30;;;2.80;;
50631;SDS011;49583;45.590;-122.498;2023-07-20T09:25:51;5.30;;;2.80;;
50631;SDS011;49583;45.590;-122.498;2023-07-20T09:28:14;5.40;;;3.10;;
50631;SDS011;49583;45.590;-122.498;2023-07-20T09:30:31;5.40;;;2.70;;
50631;SDS011;49583;45.590;-122.498;2023-07-20T09:33:04;5.60;;;2.50;;
50631;SDS011;49583;45.590;-122.498;2023-07-20T09:35:51;5.10;;;2.80;;
50631;SDS011;49583;45.590;-122.498;2023-07-20T09:38:23;8.20;;;3.00;;
50631;SDS011;49583;45.590;-122.498;2023-07-20T09:41:19;7.60;;;2.50;;
50631;SDS011;49583;45.590;-122.498;2023-07-20T09:43:44;6.60;;;2.90;;
50631;SDS011;49583;45.590;-122.498;2023-07-20T09:46:06;6.40;;;2.90;;
50631;SDS011;49583;45.590;-122.498;2023-07-20T09:48:53;6.20;;;2.60;;
50631;SDS011;49583;45.590;-122.498;2023-07-20T09:51:29;5.70;;;3.10;;
50631;SDS011;49583;45.590;-122.498;2023-07-20T09:53:46;6.90;;;2.80;;
50631;SDS011;49583;45.590;-122.498;2023-07-20T09:56:22;8.30;;;3.50;;
50631;SDS011;49583;45.590;-122.498;2023-07-20T09:58:47;5.40;;;2.80;;
50631;SDS011;49583;45.590;-122.498;2023-07-20T10:01:14;7.30;;;2.90;;
50631;SDS011;49583;45.590;-122.498;2023-07-20T10:03:31;7.80;;;3.30;;
50631;SDS011;49583;45.590;-122.498;2023-07-20T10:05:47;7.50;;;2.80;;
50631;SDS011;49583;45.590;-122.498;2023-07-20T10:08:17;5.80;;;2.60;;
50631;SDS011;49583;45.590;-122.498;2023-07-20T10:10:37;7.60;;;2.80;;
50631;SDS011;49583;45.590;-122.498;2023-07-20T10:13:01;5.70;;;2.90;;
50631;SDS011;49583;45.590;-122.498;2023-07-20T10:15:27;7.70;;;2.70;;
50631;SDS011;49583;45.590;-122.498;2023-07-20T10:18:06;8.70;;;3.30;;
50631;SDS011;49583;45.590;-122.498;2023-07-20T10:20:42;8.20;;;3.10;;
50631;SDS011;49583;45.590;-122.498;2023-07-20T10:23:18;5.90;;;3.40;;
50631;SDS011;49583;45.590;-122.498;2023-07-20T10:25:42;15.00;;;3.90;;
50631;SDS011;49583;45.590;-122.498;2023-07-20T10:28:07;10.70;;;3.90;;
50631;SDS011;49583;45.590;-122.498;2023-07-20T10:33:00;12.00;;;3.90;;
50631;SDS011;49583;45.590;-122.498;2023-07-20T10:35:16;7.00;;;2.40;;
50631;SDS011;49583;45.590;-122.498;2023-07-20T10:40:30;7.30;;;3.00;;
50631;SDS011;49583;45.590;-122.498;2023-07-20T10:42:43;4.80;;;3.20;;
50631;SDS011;49583;45.590;-122.498;2023-07-20T10:45:00;8.50;;;3.00;;
50631;SDS011;49583;45.590;-122.498;2023-07-20T10:47:14;5.60;;;3.10;;
50631;SDS011;49583;45.590;-122.498;2023-07-20T10:49:27;6.30;;;3.50;;
50631;SDS011;49583;45.590;-122.498;2023-07-20T10:51:42;6.20;;;3.50;;
50631;SDS011;49583;45.590;-122.498;2023-07-20T10:53:56;11.50;;;2.90;;
50631;SDS011;49583;45.590;-122.498;2023-07-20T10:56:13;11.50;;;3.50;;
50631;SDS011;49583;45.590;-122.498;2023-07-20T10:58:30;4.00;;;3.00;;
50631;SDS011;49583;45.590;-122.498;2023-07-20T11:03:28;4.80;;;2.90;;
50631;SDS011;49583;45.590;-122.498;2023-07-20T11:05:45;7.20;;;4.00;;
50631;SDS011;49583;45.590;-122.498;2023-07-20T11:07:57;8.00;;;3.20;;
50631;SDS011;49583;45.590;-122.498;2023-07-20T11:10:15;8.70;;;4.10;;
50631;SDS011;49583;45.590;-122.498;2023-07-20T11:12:28;6.60;;;3.70;;
50631;SDS011;49583;45.590;-122.498;2023-07-20T11:14:42;8.30;;;4.10;;
50631;SDS011;49583;45.590;-122.498;2023-07-20T11:17:12;6.70;;;3.10;;
50631;SDS011;49583;45.590;-122.498;2023-07-20T11:19:30;9.50;;;3.80;;
50631;SDS011;49583;45.590;-122.498;2023-07-20T11:21:46;9.80;;;4.00;;
50631;SDS011;49583;45.590;-122.498;2023-07-20T11:24:09;8.60;;;4.10;;
50631;SDS011;49583;45.590;-122.498;2023-07-20T11:26:22;9.10;;;4.50;;
50631;SDS011;49583;45.590;-122.498;2023-07-20T11:28:35;9.00;;;4.10;;
50631;SDS011;49583;45.590;-122.498;2023-07-20T11:30:52;7.00;;;4.10;;
50631;SDS011;49583;45.590;-122.498;2023-07-20T11:33:05;11.10;;;4.60;;
50631;SDS011;49583;45.590;-122.498;2023-07-20T11:35:18;8.30;;;3.90;;
50631;SDS011;49583;45.590;-122.498;2023-07-20T11:37:30;8.80;;;4.10;;
50631;SDS011;49583;45.590;-122.498;2023-07-20T11:39:44;7.20;;;4.40;;
50631;SDS011;49583;45.590;-122.498;2023-07-20T11:41:57;7.40;;;4.20;;
50631;SDS011;49583;45.590;-122.498;2023-07-20T11:44:10;8.70;;;4.70;;
50631;SDS011;49583;45.590;-122.498;2023-07-20T11:46:22;12.20;;;4.90;;
50631;SDS011;49583;45.590;-122.498;2023-07-20T11:48:35;9.40;;;4.70;;
50631;SDS011;49583;45.590;-122.498;2023-07-20T11:50:48;8.60;;;4.70;;
50631;SDS011;49583;45.590;-122.498;2023-07-20T11:53:01;8.60;;;4.70;;
50631;SDS011;49583;45.590;-122.498;2023-07-20T11:55:14;6.50;;;4.70;;
50631;SDS011;49583;45.590;-122.498;2023-07-20T11:57:27;9.90;;;4.60;;
50631;SDS011;49583;45.590;-122.498;2023-07-20T11:59:39;8.80;;;5.60;;
50631;SDS011;49583;45.590;-122.498;2023-07-20T12:02:05;9.10;;;5.10;;
50631;SDS011;49583;45.590;-122.498;2023-07-20T12:04:18;11.40;;;5.50;;
50631;SDS011;49583;45.590;-122.498;2023-07-20T12:06:31;10.10;;;4.30;;
50631;SDS011;49583;45.590;-122.498;2023-07-20T12:08:44;11.40;;;5.60;;
50631;SDS011;49583;45.590;-122.498;2023-07-20T12:10:56;9.40;;;5.20;;
50631;SDS011;49583;45.590;-122.498;2023-07-20T12:13:09;12.70;;;5.30;;
50631;SDS011;49583;45.590;-122.498;2023-07-20T12:15:23;10.20;;;5.20;;
50631;SDS011;49583;45.590;-122.498;2023-07-20T12:17:37;8.40;;;4.70;;
50631;SDS011;49583;45.590;-122.498;2023-07-20T12:19:59;14.10;;;5.40;;
50631;SDS011;49583;45.590;-122.498;2023-07-20T12:22:13;12.50;;;5.20;;
50631;SDS011;49583;45.590;-122.498;2023-07-20T12:24:26;9.30;;;5.30;;
50631;SDS011;49583;45.590;-122.498;2023-07-20T12:26:39;10.40;;;5.70;;
50631;SDS011;49583;45.590;-122.498;2023-07-20T12:28:52;12.70;;;5.50;;
50631;SDS011;49583;45.590;-122.498;2023-07-20T12:31:05;11.60;;;5.60;;
50631;SDS011;49583;45.590;-122.498;2023-07-20T12:33:18;12.10;;;5.50;;
50631;SDS011;49583;45.590;-122.498;2023-07-20T12:35:31;9.00;;;5.10;;
50631;SDS011;49583;45.590;-122.498;2023-07-20T12:37:44;12.70;;;6.10;;
50631;SDS011;49583;45.590;-122.498;2023-07-20T12:39:58;11.40;;;6.30;;
50631;SDS011;49583;45.590;-122.498;2023-07-20T12:42:11;12.70;;;6.70;;
50631;SDS011;49583;45.590;-122.498;2023-07-20T12:44:24;14.50;;;6.50;;
50631;SDS011;49583;45.590;-122.498;2023-07-20T12:46:36;16.40;;;6.00;;
50631;SDS011;49583;45.590;-122.498;2023-07-20T12:48:49;10.30;;;5.80;;
50631;SDS011;49583;45.590;-122.498;2023-07-20T12:51:02;10.90;;;6.10;;
50631;SDS011;49583;45.590;-122.498;2023-07-20T12:53:15;16.20;;;6.20;;
50631;SDS011;49583;45.590;-122.498;2023-07-20T12:55:27;10.20;;;5.30;;
50631;SDS011;49583;45.590;-122.498;2023-07-20T12:57:40;10.70;;;6.10;;
50631;SDS011;49583;45.590;-122.498;2023-07-20T12:59:53;10.90;;;6.00;;
50631;SDS011;49583;45.590;-122.498;2023-07-20T13:02:06;12.80;;;6.00;;
50631;SDS011;49583;45.590;-122.498;2023-07-20T13:04:18;12.60;;;5.60;;
50631;SDS011;49583;45.590;-122.498;2023-07-20T13:06:31;12.30;;;6.10;;
50631;SDS011;49583;45.590;-122.498;2023-07-20T13:08:44;11.40;;;5.70;;
50631;SDS011;49583;45.590;-122.498;2023-07-20T13:10:58;10.40;;;5.90;;
50631;SDS011;49583;45.590;-122.498;2023-07-20T13:13:12;11.00;;;5.30;;
50631;SDS011;49583;45.590;-122.498;2023-07-20T13:15:27;12.20;;;5.70;;
50631;SDS011;49583;45.590;-122.498;2023-07-20T13:17:42;12.30;;;5.50;;
50631;SDS011;49583;45.590;-122.498;2023-07-20T13:19:55;14.40;;;6.00;;
50631;SDS011;49583;45.590;-122.498;2023-07-20T13:22:08;11.20;;;5.30;;
50631;SDS011;49583;45.590;-122.498;2023-07-20T13:24:21;12.20;;;5.00;;
50631;SDS011;49583;45.590;-122.498;2023-07-20T13:26:34;9.60;;;5.00;;
50631;SDS011;49583;45.590;-122.498;2023-07-20T13:28:46;10.90;;;5.80;;
50631;SDS011;49583;45.590;-122.498;2023-07-20T13:31:01;12.10;;;5.40;;
50631;SDS011;49583;45.590;-122.498;2023-07-20T13:33:14;13.10;;;5.60;;
50631;SDS011;49583;45.590;-122.498;2023-07-20T13:35:27;9.00;;;4.60;;
50631;SDS011;49583;45.590;-122.498;2023-07-20T13:37:42;12.20;;;5.60;;
50631;SDS011;49583;45.590;-122.498;2023-07-20T13:39:55;11.60;;;5.00;;
50631;SDS011;49583;45.590;-122.498;2023-07-20T13:42:08;9.40;;;4.70;;